Latest Weather Observations for PORTABLE QFRL (Mt Fox)

IDQ60801

Issued at 2:12 am EST Wednesday 19 February 2020 (issued every 10 minutes, with the page automatically refreshed every 10 minutes)

About weather observations | Map of weather stations | Latest weather observations for QLD | Other Formats
Station Details ID: 250076 Name: PORTABLE QFRL (MOUNT FOX) Lat: -18.82 Lon: 145.79 Height: 645.0 m

Portable automatic weather stations (PAWS) are operated by other organisations, such as Fire and Emergency Services, and are included here by agreement. Portable stations may be deployed to a location for a short period and their location may be subject to change without notice. Wind observations from these stations are provided from heights of either three (3) or ten (10) metres above ground level (AGL).

Data from the previous 72 hours. | See also: Recent months for locations in Queensland
Date/Time
EST
Temp
°C
App
Temp
°C
Dew
Point
°C
Rel
Hum
%
Delta-T
°C
Wind Press
QNH
hPa
Press
MSL
hPa
Rain since
9am
mm
Dir  Spd
km/h
Gust
km/h
Spd
kts
Gust
kts
19/02:00am 23.4 26.9 21.8 91 1.1 NNE 6 17 3 9 - - 0.0
19/01:50am 23.3 27.1 21.7 91 1.1 NNE 4 7 2 4 - - 0.0
19/01:40am 23.3 26.7 21.7 91 1.1 NE 6 7 3 4 - - 0.0
19/01:30am 23.3 26.7 21.7 91 1.1 NNE 6 9 3 5 - - 0.0
19/01:20am 23.4 26.9 21.8 91 1.1 NE 6 9 3 5 - - 0.0
19/01:10am 23.4 26.8 21.7 90 1.2 NE 6 9 3 5 - - 0.0
19/01:00am 23.4 26.8 21.7 90 1.2 NE 6 9 3 5 - - 0.0
19/12:50am 23.4 27.2 21.7 90 1.2 NE 4 7 2 4 - - 0.0
19/12:40am 23.5 27.0 21.9 91 1.1 NE 6 7 3 4 - - 0.0
19/12:30am 23.5 27.5 22.0 91 1.0 NE 4 6 2 3 - - 0.0
19/12:20am 23.7 27.7 22.1 91 1.1 NE 4 6 2 3 - - 0.0
19/12:10am 23.8 28.0 22.4 92 1.0 NE 4 6 2 3 - - 0.0
19/12:00am 23.9 27.8 22.5 92 1.0 NE 6 9 3 5 - - 0.0
 
Date/Time
EST
Temp
°C
App
Temp
°C
Dew
Point
°C
Rel
Hum
%
Delta-T
°C
Wind Press
QNH
hPa
Press
MSL
hPa
Rain since
9am
mm
Dir  Spd
km/h
Gust
km/h
Spd
kts
Gust
kts
18/11:50pm 23.9 27.8 22.5 92 1.0 NE 6 7 3 4 - - 0.0
18/11:40pm 23.9 28.1 22.5 92 1.0 NE 4 7 2 4 - - 0.0
18/11:30pm 24.0 27.9 22.6 92 1.0 NNE 6 11 3 6 - - 0.0
18/11:20pm 23.9 27.8 22.5 92 1.0 NE 6 9 3 5 - - 0.0
18/11:10pm 23.9 27.8 22.5 92 1.0 NNE 6 11 3 6 - - 0.0
18/11:00pm 23.8 28.0 22.4 92 1.0 NNE 4 7 2 4 - - 0.0
18/10:50pm 23.7 27.8 22.2 91 1.0 ENE 4 9 2 5 - - 0.0
18/10:40pm 23.8 27.4 22.3 91 1.0 NE 7 9 4 5 - - 0.0
18/10:30pm 23.8 27.5 22.3 91 1.0 NE 6 9 3 5 - - 0.0
18/10:20pm 23.8 27.5 22.2 91 1.1 NE 6 9 3 5 - - 0.0
18/10:10pm 23.7 27.4 22.2 91 1.0 NNE 6 7 3 4 - - 0.0
18/10:00pm 23.7 27.8 22.2 91 1.0 NNE 4 6 2 3 - - 0.0
18/09:50pm 23.7 27.7 22.1 91 1.1 NE 4 7 2 4 - - 0.0
18/09:40pm 23.7 27.3 22.1 91 1.1 NE 6 9 3 5 - - 0.0
18/09:30pm 23.8 27.4 22.1 90 1.2 NE 6 9 3 5 - - 0.0
18/09:20pm 23.9 28.0 22.2 90 1.2 NE 4 9 2 5 - - 0.0
18/09:10pm 23.9 27.5 22.1 90 1.2 NE 6 9 3 5 - - 0.0
18/09:00pm 23.9 28.0 22.2 90 1.2 NE 4 7 2 4 - - 0.0
18/08:50pm 23.9 28.0 22.3 91 1.1 ENE 4 7 2 4 - - 0.0
18/08:40pm 24.0 28.1 22.3 90 1.2 NNE 4 7 2 4 - - 0.0
18/08:30pm 24.1 28.3 22.4 90 1.2 NE 4 7 2 4 - - 0.0
18/08:20pm 24.2 27.9 22.3 89 1.3 NE 6 7 3 4 - - 0.0
18/08:10pm 24.2 27.9 22.3 89 1.3 NE 6 9 3 5 - - 0.0
18/08:00pm 24.3 28.4 22.2 88 1.4 NNE 4 7 2 4 - - 0.0
18/07:50pm 24.4 28.1 22.2 87 1.5 NNE 6 9 3 5 - - 0.0
18/07:40pm 24.5 28.5 22.1 86 1.6 NNE 4 7 2 4 - - 0.0
18/07:30pm 24.6 28.2 22.1 86 1.7 NNE 6 7 3 4 - - 0.0
18/07:20pm 24.7 28.3 22.1 85 1.8 NNE 6 9 3 5 - - 0.0
18/07:10pm 24.8 28.3 22.1 85 1.8 NNE 7 11 4 6 - - 0.0
18/07:00pm 25.0 28.3 21.9 83 2.1 NNE 7 11 4 6 - - 0.0
18/06:50pm 25.2 29.1 21.8 81 2.3 NE 4 6 2 3 - - 0.0
18/06:40pm 25.5 29.0 21.9 80 2.5 NE 6 11 3 6 - - 0.0
18/06:30pm 25.7 29.2 21.8 79 2.7 NE 6 9 3 5 - - 0.0
18/06:20pm 26.0 29.2 21.7 77 2.9 NE 7 11 4 6 - - 0.0
18/06:10pm 26.3 29.8 21.8 76 3.1 NNE 6 9 3 5 - - 0.0
18/06:00pm 26.6 29.9 21.9 75 3.2 NNE 7 9 4 5 - - 0.0
18/05:50pm 26.8 30.1 21.8 74 3.4 NE 7 11 4 6 - - 0.0
18/05:40pm 27.0 30.5 21.9 73 3.5 NNE 6 11 3 6 - - 0.0
18/05:30pm 27.2 30.4 21.6 71 3.8 NNE 7 9 4 5 - - 0.0
18/05:20pm 27.1 29.8 21.4 71 3.9 NE 9 13 5 7 - - 0.0
18/05:10pm 27.3 30.2 21.8 72 3.8 NE 9 13 5 7 - - 0.0
18/05:00pm 27.6 30.6 21.9 71 3.9 NE 9 13 5 7 - - 0.0
18/04:50pm 27.8 30.4 22.0 70 4.0 NE 11 13 6 7 - - 0.0
18/04:40pm 28.1 31.1 22.0 69 4.2 NE 9 13 5 7 - - 0.0
18/04:30pm 28.5 31.7 22.3 69 4.3 NNE 9 15 5 8 - - 0.0
18/04:20pm 28.5 32.1 22.3 69 4.3 NNE 7 11 4 6 - - 0.0
18/04:10pm 28.6 31.2 22.0 67 4.5 NE 11 19 6 10 - - 0.0
18/04:00pm 28.8 31.7 21.8 66 4.8 NE 9 13 5 7 - - 0.0
18/03:50pm 28.7 31.9 22.3 68 4.4 NE 9 13 5 7 - - 0.0
18/03:40pm 29.1 32.6 22.9 69 4.3 NE 9 15 5 8 - - 0.0
18/03:30pm 29.0 32.2 23.0 70 4.2 NNE 11 15 6 8 - - 0.0
18/03:20pm 29.5 33.5 23.7 71 4.1 NNE 9 15 5 8 - - 0.0
18/03:10pm 29.5 33.2 23.2 69 4.4 NNE 9 13 5 7 - - 0.0
18/03:00pm 29.4 33.3 23.0 68 4.5 ENE 7 11 4 6 - - 0.0
18/02:50pm 29.3 32.0 22.1 65 5.0 NE 11 13 6 7 - - 0.0
18/02:40pm 29.7 32.6 21.8 62 5.4 NE 9 11 5 6 - - 0.0
18/02:30pm 29.8 32.9 22.1 63 5.3 NE 9 13 5 7 - - 0.0
18/02:20pm 29.8 33.4 23.1 67 4.7 ENE 9 13 5 7 - - 0.0
18/02:10pm 30.1 33.9 22.8 65 5.1 NNE 7 11 4 6 - - 0.0
18/02:00pm 30.1 34.3 23.4 67 4.7 NE 7 9 4 5 - - 0.0
18/01:50pm 29.9 32.8 21.7 61 5.6 NNE 9 13 5 7 - - 0.0
18/01:40pm 29.5 - 21.7 63 5.4 - - - - - - - 0.0
18/01:30pm 29.2 - 21.8 64 5.1 - - - - - - - 0.0
18/01:20pm 28.7 - 22.4 68 4.4 - - - - - - - 0.0
18/01:10pm 29.3 - 22.7 67 4.6 - - - - - - - 0.0
18/01:00pm 28.6 - 23.0 71 3.9 - - - - - - - 0.0
18/12:50pm 29.4 - 22.0 64 5.1 - - - - - - - 0.0
18/12:40pm 29.6 - 22.6 66 4.9 - - - - - - - 0.0
18/12:30pm 30.1 - 22.6 64 5.2 - - - - - - - 0.0
18/12:20pm 30.3 - 22.1 61 5.7 - - - - - - - 0.0
18/12:10pm 30.6 - 22.3 61 5.8 - - - - - - - 0.0
18/12:00pm 30.0 - 21.8 61 5.7 - - - - - - - 0.0
18/11:50am 29.2 - 20.7 60 5.8 - - - - - - - 0.0
18/11:40am 29.6 - 21.4 61 5.6 - - - - - - - 0.0
18/11:30am 29.8 - 21.6 61 5.6 - - - - - - - 0.0
18/11:20am 29.4 - 22.0 64 5.1 - - - - - - - 0.0
18/11:10am 29.8 - 21.3 60 5.8 - - - - - - - 0.0
18/11:00am 29.5 - 21.4 61 5.6 - - - - - - - 0.0
18/10:50am 29.4 - 21.2 61 5.6 - - - - - - - 0.0
18/10:40am 29.2 - 21.4 63 5.3 - - - - - - - 0.0
18/10:30am 28.8 - 21.2 63 5.2 - - - - - - - 0.0
18/10:20am 29.1 - 21.6 64 5.1 - - - - - - - 0.0
18/10:00am 27.9 - 21.7 69 4.2 - - - - - - - 0.0
18/09:50am 27.7 - 21.1 67 4.5 - - - - - - - 0.0
18/09:40am 27.3 - 21.8 72 3.8 - - - - - - - 0.0
18/09:30am 27.7 - 21.6 69 4.2 - - - - - - - 0.0
18/09:20am 26.6 - 21.9 75 3.2 - - - - - - - 0.0
18/09:10am 26.1 - 21.5 76 3.1 - - - - - - - 0.0
18/09:00am 25.6 - 21.6 78 2.7 - - - - - - - 0.0
18/08:50am 25.5 - 22.0 81 2.4 - - - - - - - 0.0
18/08:40am 25.3 - 22.2 83 2.1 - - - - - - - 0.0
18/08:30am 25.1 - 21.9 82 2.2 - - - - - - - 0.0
18/08:20am 25.1 - 22.0 83 2.1 - - - - - - - 0.0
18/08:10am 25.2 - 22.3 84 2.0 - - - - - - - 0.0
18/08:00am 25.2 - 22.5 85 1.9 - - - - - - - 0.0
18/07:50am 24.8 - 22.5 87 1.6 - - - - - - - 0.0
18/07:40am 24.1 - 22.7 92 1.0 - - - - - - - 0.0
18/07:30am 23.6 - 22.5 93 0.8 - - - - - - - 0.0
18/07:20am 22.9 - 22.0 95 0.6 - - - - - - - 0.0
18/07:10am 22.4 - 21.7 96 0.5 - - - - - - - 0.0
18/07:00am 22.1 - 21.4 96 0.5 - - - - - - - 0.0
18/06:50am 21.9 - 21.1 95 0.5 - - - - - - - 0.0
18/06:40am 21.8 - 21.1 96 0.5 - - - - - - - 0.0
18/06:30am 21.8 - 21.0 95 0.5 - - - - - - - 0.0
18/06:20am 21.8 - 21.0 95 0.5 - - - - - - - 0.0
18/06:10am 21.8 - 21.0 95 0.5 - - - - - - - 0.0
18/06:00am 21.7 - 20.9 95 0.5 - - - - - - - 0.0
18/05:50am 21.7 - 20.8 95 0.6 - - - - - - - 0.0
18/05:40am 21.7 - 20.8 95 0.6 - - - - - - - 0.0
18/05:30am 21.8 - 20.9 95 0.6 - - - - - - - 0.0
18/05:20am 21.9 - 20.9 94 0.7 - - - - - - - 0.0
18/05:10am 22.0 - 21.1 95 0.6 - - - - - - - 0.0
18/05:00am 22.1 - 21.1 94 0.7 - - - - - - - 0.0
18/04:50am 22.2 - 21.2 94 0.7 - - - - - - - 0.0
18/04:40am 22.3 26.2 21.2 93 0.7 WNW 2 19 1 10 - - 0.0
18/04:30am 22.4 26.4 21.3 93 0.7 SW 2 4 1 2 - - 0.0
18/04:20am 22.5 - 21.3 93 0.8 - - - - - - - 0.0
18/04:10am 22.7 - 21.5 93 0.8 - - - - - - - 0.0
18/04:00am 22.8 - 21.6 93 0.8 - - - - - - - 0.0
18/03:50am 22.9 - 21.6 92 0.9 - - - - - - - 0.0
18/03:40am 22.9 - 21.6 92 0.9 - - - - - - - 0.0
18/03:30am 23.0 - 21.6 92 0.9 - - - - - - - 0.0
18/03:20am 23.2 - 21.7 91 1.0 - - - - - - - 0.0
18/03:10am 23.3 - 21.7 91 1.1 - - - - - - - 0.0
18/03:00am 23.3 - 21.6 90 1.1 - - - - - - - 0.0
18/02:50am 23.4 - 21.7 90 1.2 - - - - - - - 0.0
18/02:40am 23.4 - 21.7 90 1.2 - - - - - - - 0.0
18/02:30am 23.3 - 21.7 91 1.1 - - - - - - - 0.0
18/02:20am 23.3 - 21.8 91 1.0 - - - - - - - 0.0
18/02:10am 23.4 - 21.7 90 1.2 - - - - - - - 0.0
18/02:00am 23.4 27.2 21.7 90 1.2 NNE 4 7 2 4 - - 0.0
18/01:50am 23.3 - 21.6 90 1.1 - - - - - - - 0.0
18/01:40am 23.3 26.2 21.7 91 1.1 NE 9 11 5 6 - - 0.0
18/01:30am 23.3 - 21.6 90 1.1 - - - - - - - 0.0
18/01:20am 23.3 - 21.7 91 1.1 - - - - - - - 0.0
18/01:10am 23.3 - 21.7 91 1.1 - - - - - - - 0.0
18/01:00am 23.4 - 21.8 91 1.1 - - - - - - - 0.0
18/12:50am 23.4 - 21.8 91 1.1 - - - - - - - 0.0
18/12:40am 23.5 - 21.9 91 1.1 - - - - - - - 0.0
18/12:30am 23.5 - 21.9 91 1.1 - - - - - - - 0.0
18/12:20am 23.5 27.1 22.0 91 1.0 NNE 6 9 3 5 - - 0.0
18/12:10am 23.5 - 22.0 91 1.0 - - - - - - - 0.0
18/12:00am 23.6 - 22.0 91 1.1 - - - - - - - 0.0
 
Date/Time
EST
Temp
°C
App
Temp
°C
Dew
Point
°C
Rel
Hum
%
Delta-T
°C
Wind Press
QNH
hPa
Press
MSL
hPa
Rain since
9am
mm
Dir  Spd
km/h
Gust
km/h
Spd
kts
Gust
kts
17/11:50pm 23.6 27.1 21.9 90 1.2 NNE 6 9 3 5 - - 0.0
17/11:40pm 23.7 27.3 22.0 90 1.2 NNE 6 9 3 5 - - 0.0
17/11:30pm 23.7 27.1 22.0 90 1.2 NE 7 9 4 5 - - 0.0
17/11:20pm 23.7 27.3 22.1 91 1.1 NE 6 9 3 5 - - 0.0
17/11:10pm 23.8 27.3 22.1 90 1.2 NNE 7 9 4 5 - - 0.0
17/11:00pm 23.8 27.3 22.2 91 1.1 NE 7 13 4 7 - - 0.0
17/10:50pm 23.9 27.1 22.3 91 1.1 NE 9 11 5 6 - - 0.0
17/10:40pm 23.9 27.1 22.3 91 1.1 NE 9 11 5 6 - - 0.0
17/10:30pm 24.0 27.6 22.4 91 1.1 NNE 7 11 4 6 - - 0.0
17/10:20pm 24.0 27.8 22.4 91 1.1 NE 6 9 3 5 - - 0.0
17/10:10pm 24.0 28.2 22.5 91 1.0 NE 4 7 2 4 - - 0.0
17/10:00pm 24.1 27.9 22.4 90 1.2 NNE 6 9 3 5 - - 0.0
17/09:50pm 24.1 28.0 22.5 91 1.1 NE 6 9 3 5 - - 0.0
17/09:40pm 24.1 28.0 22.5 91 1.1 NNE 6 9 3 5 - - 0.0
17/09:30pm 24.1 27.8 22.5 91 1.1 NE 7 9 4 5 - - 0.0
17/09:20pm 24.2 28.4 22.5 90 1.2 NE 4 9 2 5 - - 0.0
17/09:10pm 24.3 28.2 22.6 90 1.2 NE 6 9 3 5 - - 0.0
17/09:00pm 24.3 28.5 22.5 90 1.2 NE 4 7 2 4 - - 0.0
17/08:50pm 24.4 28.3 22.6 90 1.2 NE 6 11 3 6 - - 0.0
17/08:40pm 24.3 28.2 22.5 90 1.2 NNE 6 9 3 5 - - 0.0
17/08:30pm 24.3 28.0 22.3 88 1.4 NE 6 9 3 5 - - 0.0
17/08:20pm 24.3 27.9 22.3 88 1.4 NE 7 9 4 5 - - 0.0
17/08:10pm 24.3 28.1 22.4 89 1.3 NE 6 7 3 4 - - 0.0
17/08:00pm 24.4 28.3 22.5 89 1.3 NE 6 9 3 5 - - 0.0
17/07:50pm 24.4 28.3 22.5 89 1.3 NE 6 11 3 6 - - 0.0
17/07:40pm 24.5 28.2 22.3 87 1.5 NE 6 7 3 4 - - 0.0
17/07:30pm 24.5 28.0 22.2 87 1.6 NE 7 9 4 5 - - 0.0
17/07:20pm 24.6 28.2 22.1 86 1.7 NE 6 9 3 5 - - 0.0
17/07:10pm 24.7 28.7 22.0 85 1.8 NE 4 6 2 3 - - 0.0
17/07:00pm 24.9 28.3 22.0 84 2.0 ENE 7 11 4 6 - - 0.0
17/06:50pm 25.1 28.8 22.2 84 2.0 NE 6 9 3 5 - - 0.0
17/06:40pm 25.4 29.0 22.3 83 2.1 NE 7 11 4 6 - - 0.0
17/06:30pm 25.7 29.2 22.2 81 2.4 NE 7 9 4 5 - - 0.0
17/06:20pm 26.0 29.7 22.3 80 2.5 NE 6 9 3 5 - - 0.0
17/06:10pm 26.1 29.8 22.2 79 2.7 NE 6 9 3 5 - - 0.0
17/06:00pm 26.2 29.9 22.3 79 2.7 NNE 6 9 3 5 - - 0.0
17/05:50pm 26.1 29.7 22.1 78 2.7 NNE 6 7 3 4 - - 0.0
17/05:40pm 26.2 29.5 21.8 77 3.0 NNE 7 9 4 5 - - 0.0
17/05:30pm 26.6 30.1 21.8 75 3.3 NE 6 9 3 5 - - 0.0
17/05:20pm 27.0 30.6 22.0 74 3.4 ENE 6 9 3 5 - - 0.0
17/05:10pm 27.5 31.1 22.0 72 3.8 NE 6 9 3 5 - - 0.0
17/05:00pm 27.6 31.2 22.1 72 3.8 NE 6 9 3 5 - - 0.0
17/04:50pm 27.9 30.9 21.9 70 4.1 ENE 9 13 5 7 - - 0.0
17/04:40pm 28.4 32.0 22.3 69 4.2 ENE 7 11 4 6 - - 0.0
17/04:30pm 28.6 31.7 22.2 68 4.4 ENE 9 11 5 6 - - 0.0
17/04:20pm 28.1 31.6 21.8 68 4.3 ENE 6 11 3 6 - - 0.0
17/04:10pm 27.2 30.4 21.7 72 3.8 ENE 7 11 4 6 - - 0.0
17/04:00pm 27.5 30.7 21.6 70 4.0 E 7 13 4 7 - - 0.0
17/03:50pm 28.4 31.3 21.8 67 4.5 NE 9 13 5 7 - - 0.0
17/03:40pm 29.2 32.7 22.1 65 4.9 NE 7 11 4 6 - - 0.0
17/03:30pm 29.6 32.8 22.4 65 5.0 NE 9 15 5 8 - - 0.0
17/03:20pm 29.5 33.1 22.0 64 5.2 NE 6 9 3 5 - - 0.0
17/03:10pm 28.7 31.8 22.2 68 4.5 NE 9 11 5 6 - - 0.0
17/03:00pm 28.7 32.3 22.4 68 4.4 NE 7 11 4 6 - - 0.0
17/02:50pm 28.8 32.4 22.3 68 4.5 NE 7 9 4 5 - - 0.0
17/02:40pm 29.5 32.9 22.7 67 4.7 NNE 9 13 5 7 - - 0.0
17/02:30pm 30.5 34.0 22.9 64 5.3 NNE 9 13 5 7 - - 0.0
17/02:20pm 30.1 33.3 21.6 60 5.8 NE 7 13 4 7 - - 0.0
17/02:10pm 29.7 33.3 22.3 64 5.1 NE 7 7 4 4 - - 0.0
17/02:00pm 29.2 - 22.3 66 4.8 - - - - - - - 0.0
17/01:50pm 29.1 32.2 22.2 66 4.8 NNE 9 15 5 8 - - 0.0
17/01:40pm 30.0 32.3 22.7 65 5.1 NNE 15 15 8 8 - - 0.0
17/01:30pm 30.1 - 22.6 64 5.2 - - - - - - - 0.0
17/01:20pm 30.2 - 23.1 65 5.0 - - - - - - - 0.0
17/01:10pm 30.0 - 22.5 64 5.2 - - - - - - - 0.0
17/01:00pm 30.1 - 22.8 65 5.1 - - - - - - - 0.0
17/12:50pm 29.8 - 22.7 65 5.0 - - - - - - - 0.0
17/12:40pm 29.6 - 22.6 66 4.9 - - - - - - - 0.0
17/12:30pm 29.6 - 22.8 67 4.7 - - - - - - - 0.0
17/12:20pm 29.9 - 22.8 65 5.0 - - - - - - - 0.0
17/12:10pm 29.9 - 22.2 63 5.3 - - - - - - - 0.0
17/12:00pm 30.1 - 22.4 63 5.4 - - - - - - - 0.0
17/11:50am 29.8 - 21.8 62 5.5 - - - - - - - 0.0
17/11:40am 29.5 - 22.2 65 5.1 - - - - - - - 0.0
17/11:30am 29.8 - 22.4 64 5.1 - - - - - - - 0.0
17/11:20am 29.3 - 22.4 66 4.8 - - - - - - - 0.0
17/11:10am 29.1 - 21.3 62 5.3 - - - - - - - 0.0
17/11:00am 29.0 - 21.8 65 5.0 - - - - - - - 0.0
17/10:50am 29.2 - 21.9 64 5.0 - - - - - - - 0.0
17/10:40am 29.1 - 22.3 66 4.7 - - - - - - - 0.0
17/10:30am 28.7 - 22.2 68 4.5 - - - - - - - 0.0
17/10:20am 28.6 - 22.4 69 4.3 - - - - - - - 0.0
17/10:00am 28.5 - 22.5 70 4.2 - - - - - - - 0.0
17/09:50am 29.0 - 22.5 68 4.5 - - - - - - - 0.0
17/09:40am 28.3 - 21.3 65 4.8 - - - - - - - 0.0
17/09:30am 27.6 - 21.8 70 4.0 - - - - - - - 0.0
17/09:20am 26.9 - 22.2 75 3.2 - - - - - - - 0.0
17/09:10am 27.1 - 22.1 74 3.4 - - - - - - - 0.0
17/09:00am 27.2 - 22.2 74 3.4 - - - - - - - 15.0
17/08:50am 27.1 30.8 22.3 75 3.3 NNE 6 7 3 4 - - 15.0
17/08:40am 27.0 - 22.4 76 3.2 - - - - - - - 15.0
17/08:30am 27.1 - 22.7 77 3.0 - - - - - - - 15.0
17/08:20am 27.2 - 22.8 77 3.1 - - - - - - - 15.0
17/08:10am 26.5 - 22.6 79 2.7 - - - - - - - 15.0
17/08:00am 25.7 - 22.7 83 2.1 - - - - - - - 15.0
17/07:50am 24.8 - 22.9 89 1.3 - - - - - - - 15.0
17/07:40am 23.8 - 22.7 93 0.8 - - - - - - - 15.0
17/07:30am 23.1 - 22.3 95 0.5 - - - - - - - 15.0
17/07:20am 22.5 - 21.8 96 0.5 - - - - - - - 15.0
17/07:10am 21.9 - 21.2 96 0.5 - - - - - - - 15.0
17/07:00am 21.4 - 20.7 96 0.5 - - - - - - - 15.0
17/06:50am 21.1 - 20.4 96 0.5 - - - - - - - 15.0
17/06:40am 21.1 - 20.3 95 0.5 - - - - - - - 15.0
17/06:30am 21.1 - 20.4 96 0.5 - - - - - - - 15.0
17/06:20am 21.1 - 20.4 96 0.5 - - - - - - - 15.0
17/06:10am 21.2 - 20.4 95 0.5 - - - - - - - 15.0
17/06:00am 21.2 - 20.4 95 0.5 - - - - - - - 15.0
17/05:50am 21.3 - 20.5 95 0.5 - - - - - - - 15.0
17/05:40am 21.5 - 20.7 95 0.5 - - - - - - - 15.0
17/05:30am 21.5 - 20.7 95 0.5 - - - - - - - 15.0
17/05:20am 21.6 - 20.8 95 0.5 - - - - - - - 15.0
17/05:10am 21.8 - 20.9 95 0.6 - - - - - - - 15.0
17/05:00am 21.9 - 21.0 95 0.6 - - - - - - - 15.0
17/04:50am 22.0 - 21.2 95 0.5 - - - - - - - 15.0
17/04:40am 22.1 - 21.3 95 0.5 - - - - - - - 15.0
17/04:30am 22.2 - 21.3 95 0.6 - - - - - - - 15.0
17/04:20am 22.2 - 21.3 95 0.6 - - - - - - - 15.0
17/04:10am 22.2 - 21.3 95 0.6 - - - - - - - 15.0
17/04:00am 22.2 26.2 21.3 95 0.6 ESE 2 4 1 2 - - 15.0
17/03:50am 22.2 26.2 21.3 95 0.6 ESE 2 4 1 2 - - 15.0
17/03:40am 22.3 26.3 21.4 95 0.6 E 2 4 1 2 - - 15.0
17/03:30am 22.4 26.5 21.5 95 0.6 NNE 2 4 1 2 - - 15.0
17/03:20am 22.5 26.6 21.6 95 0.6 NE 2 4 1 2 - - 15.0
17/03:10am 22.7 27.0 21.9 95 0.5 SSE 2 6 1 3 - - 15.0
17/03:00am 22.7 27.0 21.9 95 0.5 NNE 2 2 1 1 - - 15.0
17/02:50am 22.7 26.3 22.0 96 0.5 NNE 6 9 3 5 - - 15.0
17/02:40am 22.4 26.9 21.6 95 0.5 CALM 0 0 0 0 - - 15.0
17/02:30am 22.5 27.1 21.7 95 0.5 CALM 0 4 0 2 - - 15.0
17/02:20am 22.5 - 21.7 95 0.5 - - - - - - - 15.0
17/02:10am 22.6 - 21.7 95 0.6 - - - - - - - 15.0
17/02:00am 22.7 - 21.8 95 0.6 - - - - - - - 15.0
17/01:50am 22.8 - 21.9 95 0.6 - - - - - - - 15.0
17/01:40am 22.9 27.2 21.9 94 0.7 SSE 2 2 1 1 - - 15.0
17/01:30am 22.9 27.6 22.0 95 0.6 CALM 0 2 0 1 - - 15.0
17/01:20am 23.1 27.9 22.1 94 0.7 CALM 0 2 0 1 - - 15.0
17/01:10am 23.2 28.0 22.2 94 0.7 CALM 0 2 0 1 - - 15.0
17/01:00am 23.2 27.7 22.2 94 0.7 E 2 6 1 3 - - 15.0
17/12:50am 23.4 28.3 22.3 93 0.8 CALM 0 2 0 1 - - 15.0
17/12:40am 23.6 28.6 22.5 93 0.8 CALM 0 0 0 0 - - 15.0
17/12:30am 23.8 28.4 22.5 92 0.9 N 2 4 1 2 - - 15.0
17/12:20am 23.9 29.0 22.7 93 0.8 CALM 0 4 0 2 - - 15.0
17/12:10am 23.8 28.9 22.6 93 0.8 CALM 0 0 0 0 - - 15.0
17/12:00am 23.8 28.0 22.5 92 0.9 SE 4 6 2 3 - - 15.0
 
Date/Time
EST
Temp
°C
App
Temp
°C
Dew
Point
°C
Rel
Hum
%
Delta-T
°C
Wind Press
QNH
hPa
Press
MSL
hPa
Rain since
9am
mm
Dir  Spd
km/h
Gust
km/h
Spd
kts
Gust
kts
16/11:50pm 23.9 28.5 22.5 92 1.0 N 2 6 1 3 - - 14.8
16/11:40pm 23.9 28.6 22.7 93 0.8 NNW 2 4 1 2 - - 14.8
16/11:30pm 23.9 28.6 22.6 92 0.9 ENE 2 4 1 2 - - 14.8
16/11:20pm 23.9 29.0 22.6 92 0.9 CALM 0 2 0 1 - - 14.8
16/11:10pm 23.9 29.0 22.6 92 0.9 CALM 0 0 0 0 - - 14.8
16/11:00pm 24.0 29.1 22.6 92 1.0 CALM 0 2 0 1 - - 14.8
16/10:50pm 24.1 28.7 22.5 91 1.1 NNE 2 4 1 2 - - 14.8
16/10:40pm 24.1 29.1 22.5 91 1.1 CALM 0 2 0 1 - - 14.8
16/10:30pm 24.1 28.8 22.6 91 1.0 WSW 2 4 1 2 - - 14.8
16/10:20pm 24.0 29.0 22.5 91 1.0 CALM 0 4 0 2 - - 14.8
16/10:10pm 24.0 28.7 22.6 92 1.0 S 2 4 1 2 - - 14.8
16/10:00pm 24.0 29.1 22.6 92 1.0 CALM 0 0 0 0 - - 14.8
16/09:50pm 24.1 29.1 22.5 91 1.1 CALM 0 2 0 1 - - 14.8
16/09:40pm 24.2 28.8 22.4 90 1.2 NNW 2 4 1 2 - - 14.8
16/09:30pm 24.2 28.7 22.3 89 1.3 N 2 4 1 2 - - 14.8
16/09:20pm 24.2 28.4 22.4 90 1.2 NW 4 4 2 2 - - 14.8
16/09:10pm 24.3 28.4 22.3 88 1.4 NW 4 6 2 3 - - 14.8
16/09:00pm 24.4 28.5 22.2 87 1.5 NW 4 6 2 3 - - 14.8
16/08:50pm 24.4 28.5 22.2 87 1.5 NW 4 6 2 3 - - 14.8
16/08:40pm 24.4 28.5 22.3 88 1.4 N 4 7 2 4 - - 14.8
16/08:30pm 24.4 28.5 22.3 88 1.4 NNW 4 6 2 3 - - 14.8
16/08:20pm 24.3 28.4 22.2 88 1.4 WNW 4 9 2 5 - - 14.8
16/08:10pm 24.1 28.2 22.2 89 1.3 W 4 6 2 3 - - 14.8
16/08:00pm 24.2 27.8 22.1 88 1.4 NNW 6 7 3 4 - - 14.8
16/07:50pm 24.2 27.7 22.1 88 1.4 NNE 7 11 4 6 - - 14.8
16/07:40pm 24.3 27.5 22.4 89 1.3 NE 9 11 5 6 - - 14.8
16/07:30pm 24.5 28.2 22.6 89 1.3 NE 7 13 4 7 - - 14.8
16/07:20pm 24.6 28.1 22.8 90 1.2 NE 9 11 5 6 - - 14.8
16/07:10pm 24.7 28.2 22.8 89 1.3 NNE 9 13 5 7 - - 14.8
16/07:00pm 24.8 28.7 22.9 89 1.3 NE 7 11 4 6 - - 14.8
16/06:50pm 24.9 29.0 23.0 89 1.3 NE 6 9 3 5 - - 14.8
16/06:40pm 25.1 29.7 23.1 89 1.4 NE 4 7 2 4 - - 14.8
16/06:30pm 25.4 30.0 23.1 87 1.6 NE 4 7 2 4 - - 14.8
16/06:20pm 25.5 30.3 22.8 85 1.9 NE 2 6 1 3 - - 14.8
16/06:10pm 25.5 29.9 22.8 85 1.9 NE 4 6 2 3 - - 14.8
16/06:00pm 25.5 30.0 23.0 86 1.7 NE 4 7 2 4 - - 14.8
16/05:50pm 25.5 30.3 23.5 89 1.4 NE 4 6 2 3 - - 14.8
16/05:40pm 25.4 30.2 23.5 89 1.3 NE 4 7 2 4 - - 14.8
16/05:30pm 25.4 29.7 23.3 88 1.5 NE 6 9 3 5 - - 14.8
16/05:20pm 25.3 29.8 22.3 83 2.1 NE 2 6 1 3 - - 14.8
16/05:10pm 25.3 29.2 21.8 81 2.4 ENE 4 7 2 4 - - 14.8
16/05:00pm 25.5 29.0 21.8 80 2.5 NE 6 9 3 5 - - 14.8
16/04:50pm 25.7 29.3 22.3 81 2.3 NE 7 11 4 6 - - 14.8
16/04:40pm 25.7 29.2 21.9 79 2.6 NE 6 9 3 5 - - 14.8
16/04:30pm 25.7 29.2 22.1 80 2.5 NE 7 11 4 6 - - 14.8
16/04:20pm 25.3 - 22.6 85 1.9 - - - - - - - 14.8
16/04:10pm 25.0 - 22.5 86 1.7 - - - - - - - 14.8
16/04:00pm 25.0 - 22.5 86 1.7 - - - - - - - 14.8
16/03:50pm 24.7 - 22.6 88 1.4 - - - - - - - 14.8
16/03:40pm 24.5 27.3 21.6 84 2.0 N 9 13 5 7 - - 14.8
16/03:30pm 24.2 28.3 22.2 88 1.4 NE 4 7 2 4 - - 14.8
16/03:20pm 24.2 27.5 21.8 86 1.6 N 7 13 4 7 - - 14.8
16/03:10pm 24.0 26.7 20.7 82 2.2 NW 7 9 4 5 - - 14.8
16/03:00pm 24.3 28.8 22.9 92 1.0 NNE 4 9 2 5 - - 14.8
16/02:50pm 23.7 27.3 22.1 91 1.1 N 6 7 3 4 - - 14.8
16/02:40pm 23.0 25.3 20.6 86 1.6 NNE 9 15 5 8 - - 14.6
16/02:30pm 23.2 25.8 20.4 84 1.9 ENE 7 13 4 7 - - 14.0
16/02:20pm 24.1 23.9 17.6 67 4.2 SSE 15 24 8 13 - - 10.4
16/02:10pm 24.8 27.1 19.8 74 3.3 E 7 11 4 6 - - 2.8
16/02:00pm 25.5 26.3 19.8 70 3.8 NE 15 20 8 11 - - 2.8
16/01:50pm 30.2 32.9 22.2 62 5.5 ENE 11 15 6 8 - - 0.2
16/01:40pm 32.0 35.6 23.1 59 6.3 NNE 9 13 5 7 - - 0.0
16/01:30pm 32.9 36.5 23.0 56 7.0 NE 9 11 5 6 - - 0.0
16/01:20pm 33.7 38.4 23.3 54 7.4 E 4 9 2 5 - - 0.0
16/01:10pm 34.4 38.8 22.8 51 8.2 NNE 4 9 2 5 - - 0.0
16/01:00pm 34.1 37.2 21.0 46 9.0 ENE 6 7 3 4 - - 0.0
16/12:50pm 34.1 36.4 19.5 42 9.9 ENE 6 9 3 5 - - 0.0
16/12:40pm 33.7 36.1 18.9 41 9.9 NNE 4 6 2 3 - - 0.0
16/12:30pm 33.7 35.8 18.9 41 9.9 N 6 7 3 4 - - 0.0
16/12:20pm 34.1 36.4 19.5 42 9.9 NNW 6 7 3 4 - - 0.0
16/12:10pm 34.0 36.8 20.5 45 9.2 WSW 6 9 3 5 - - 0.0
16/12:00pm 33.8 36.9 21.0 47 8.8 W 6 11 3 6 - - 0.0
16/11:50am 33.6 36.9 20.7 46 8.8 WNW 4 6 2 3 - - 0.0
16/11:40am 32.9 36.1 20.5 48 8.5 SSW 4 7 2 4 - - 0.0
16/11:30am 32.6 35.9 20.7 49 8.1 S 4 7 2 4 - - 0.0
16/11:20am 32.4 35.2 20.4 49 8.2 S 6 7 3 4 - - 0.0
16/11:10am 32.7 35.4 20.7 49 8.2 W 7 11 4 6 - - 0.0
16/11:00am 32.6 35.8 20.5 49 8.3 W 4 6 2 3 - - 0.0
16/10:50am 32.5 - 21.5 52 7.6 - - - - - - - 0.0
16/10:40am 32.1 35.3 21.2 52 7.5 W 6 13 3 7 - - 0.0
16/10:30am 31.7 - 21.6 55 7.0 - - - - - - - 0.0
16/10:20am 31.4 35.5 22.3 58 6.3 WSW 4 7 2 4 - - 0.0
16/10:10am 30.9 - 21.1 56 6.7 - - - - - - - 0.0
16/10:00am 30.6 34.6 22.1 60 5.9 WSW 4 7 2 4 - - 0.0
16/09:50am 30.1 32.8 20.6 56 6.5 WSW 7 11 4 6 - - 0.0
16/09:40am 29.1 32.0 21.0 61 5.5 WSW 7 15 4 8 - - 0.0
16/09:30am 29.5 32.3 20.9 60 5.9 SW 7 11 4 6 - - 0.0
16/09:20am 29.2 31.9 20.7 60 5.8 SW 7 11 4 6 - - 0.0
16/09:10am 29.4 31.6 20.4 58 6.1 W 9 13 5 7 - - 0.0
16/09:00am 29.6 32.5 20.7 58 6.0 W 6 11 3 6 - - 1.8
16/08:50am 29.0 - 20.9 61 5.5 - - - - - - - 1.8
16/08:40am 28.8 31.5 20.7 61 5.5 SSW 7 7 4 4 - - 1.8
16/08:30am 28.7 - 20.6 61 5.5 - - - - - - - 1.8
16/08:20am 28.5 31.1 20.5 62 5.4 WSW 7 11 4 6 - - 1.8
16/08:10am 28.1 31.2 20.3 62 5.2 WSW 4 6 2 3 - - 1.8
16/08:00am 27.0 30.3 20.7 68 4.3 SSW 4 7 2 4 - - 1.8
16/07:50am 25.3 - 21.0 77 2.9 - - - - - - - 1.8
16/07:40am 23.5 - 21.9 91 1.1 - - - - - - - 1.8
16/07:30am 22.5 - 21.4 93 0.7 - - - - - - - 1.8
16/07:20am 22.0 26.2 21.0 94 0.7 CALM 0 0 0 0 - - 1.8
16/07:10am 21.8 26.0 20.9 95 0.6 CALM 0 0 0 0 - - 1.8
16/07:00am 21.6 25.7 20.7 95 0.6 CALM 0 0 0 0 - - 1.8
16/06:50am 21.4 25.4 20.5 95 0.6 CALM 0 0 0 0 - - 1.8
16/06:40am 21.3 25.2 20.3 94 0.7 CALM 0 0 0 0 - - 1.8
16/06:30am 21.2 25.1 20.3 95 0.6 CALM 0 0 0 0 - - 1.8
16/06:20am 21.2 25.0 20.2 94 0.7 CALM 0 0 0 0 - - 1.8
16/06:10am 21.2 25.0 20.2 94 0.7 CALM 0 2 0 1 - - 1.8
16/06:00am 21.2 25.0 20.2 94 0.7 CALM 0 2 0 1 - - 1.8
16/05:50am 21.3 25.2 20.3 94 0.7 CALM 0 0 0 0 - - 1.8
16/05:40am 21.4 - 20.3 93 0.7 - - - - - - - 1.8
16/05:30am 21.4 25.3 20.3 93 0.7 CALM 0 0 0 0 - - 1.8
16/05:20am 21.4 25.3 20.3 93 0.7 CALM 0 0 0 0 - - 1.8
16/05:10am 21.5 25.4 20.4 93 0.7 CALM 0 0 0 0 - - 1.8
16/05:00am 21.5 25.4 20.3 93 0.8 CALM 0 2 0 1 - - 1.8
16/04:50am 21.6 25.5 20.3 92 0.9 CALM 0 0 0 0 - - 1.8
16/04:40am 21.6 25.5 20.3 92 0.9 CALM 0 0 0 0 - - 1.8
16/04:30am 21.7 25.6 20.3 92 0.9 CALM 0 0 0 0 - - 1.8
16/04:20am 21.9 25.8 20.4 91 1.0 CALM 0 0 0 0 - - 1.8
16/04:10am 22.1 26.0 20.4 90 1.1 CALM 0 0 0 0 - - 1.8
16/04:00am 22.3 26.3 20.5 89 1.2 CALM 0 0 0 0 - - 1.8
16/03:50am 22.5 26.5 20.5 88 1.3 CALM 0 0 0 0 - - 1.8
16/03:40am 22.6 26.5 20.4 87 1.5 CALM 0 0 0 0 - - 1.8
16/03:30am 22.7 26.8 20.7 88 1.3 CALM 0 2 0 1 - - 1.8
16/03:20am 22.9 - 20.6 87 1.5 - - - - - - - 1.8
16/03:10am 22.9 26.9 20.6 87 1.5 CALM 0 2 0 1 - - 1.8
16/03:00am 23.1 - 20.5 85 1.7 - - - - - - - 1.8
16/02:50am 23.3 - 20.1 82 2.1 - - - - - - - 1.8
16/02:40am 23.3 - 19.6 80 2.4 - - - - - - - 1.8
16/02:30am 23.3 - 19.9 81 2.2 - - - - - - - 1.8
16/02:20am 23.4 - 19.7 80 2.4 - - - - - - - 1.8

Other formats

Comma delimited format used in spreadsheet applications
http://www.bom.gov.au/fwo/IDQ60801/IDQ60801.99125.axf

JavaScript Object Notation format (JSON) in row-major order
http://www.bom.gov.au/fwo/IDQ60801/IDQ60801.99125.json

Data quality

Most of these data are generated automatically and are frequently updated. Quality checks on data are not normally performed. It is possible for incorrect values to appear. Refer to information at About Latest Weather Observations and please check the disclaimer before using these data.